createdAt,value
2022-09-28T00:00:15.925Z,985.06
2022-09-28T00:01:15.931Z,985.04
2022-09-28T00:02:16.011Z,985.03
2022-09-28T00:03:15.894Z,985.06
2022-09-28T00:04:15.900Z,985.11
2022-09-28T00:05:15.868Z,985.12
2022-09-28T00:06:15.864Z,985.11
2022-09-28T00:07:15.878Z,985.15
2022-09-28T00:08:15.875Z,985.15
2022-09-28T00:09:15.853Z,985.08
2022-09-28T00:10:15.812Z,985.09
2022-09-28T00:11:15.812Z,985.12
2022-09-28T00:12:15.866Z,985.06
2022-09-28T00:13:15.805Z,985.07
2022-09-28T00:14:15.777Z,985.12
2022-09-28T00:15:15.762Z,985.06
2022-09-28T00:16:15.825Z,985.05
2022-09-28T00:17:15.756Z,985.06
2022-09-28T00:18:15.740Z,985.04
2022-09-28T00:19:15.775Z,985.11
2022-09-28T00:20:15.744Z,985.02
2022-09-28T00:21:15.704Z,985.03
2022-09-28T00:22:15.685Z,985.02
2022-09-28T00:23:15.667Z,985.07
2022-09-28T00:24:15.797Z,985.10
2022-09-28T00:25:15.667Z,985.03
2022-09-28T00:26:15.640Z,985.08
2022-09-28T00:27:15.649Z,985.04
2022-09-28T00:28:15.629Z,984.99
2022-09-28T00:29:15.651Z,985.02
2022-09-28T00:30:15.608Z,985.04
2022-09-28T00:31:15.621Z,985.00
2022-09-28T00:32:15.570Z,984.99
2022-09-28T00:33:15.588Z,985.00
2022-09-28T00:34:15.570Z,984.99
2022-09-28T00:35:15.547Z,984.97
2022-09-28T00:36:15.533Z,984.97
2022-09-28T00:37:15.515Z,984.98
2022-09-28T00:38:15.506Z,984.96
2022-09-28T00:39:15.568Z,985.02
2022-09-28T00:40:15.625Z,985.00
2022-09-28T00:41:15.507Z,984.95
2022-09-28T00:42:15.476Z,984.90
2022-09-28T00:43:15.447Z,984.90
2022-09-28T00:44:15.435Z,984.90
2022-09-28T00:45:15.561Z,984.88
2022-09-28T00:46:15.505Z,984.86
2022-09-28T00:47:15.415Z,984.88
2022-09-28T00:48:15.389Z,984.87
2022-09-28T00:49:15.449Z,984.84
2022-09-28T00:50:15.406Z,984.94
2022-09-28T00:51:15.398Z,984.87
2022-09-28T00:52:15.347Z,984.86
2022-09-28T00:53:15.360Z,984.84
2022-09-28T00:54:15.323Z,984.86
2022-09-28T00:55:15.331Z,984.80
2022-09-28T00:56:15.325Z,984.88
2022-09-28T00:57:15.313Z,984.83
2022-09-28T00:58:15.292Z,984.76
2022-09-28T00:59:15.291Z,984.80
2022-09-28T01:00:15.304Z,984.81
2022-09-28T01:01:15.350Z,984.86
2022-09-28T01:02:15.341Z,984.78
2022-09-28T01:03:15.224Z,984.83
2022-09-28T01:04:15.225Z,984.87
2022-09-28T01:05:15.227Z,984.83
2022-09-28T01:06:15.220Z,984.81
2022-09-28T01:07:15.238Z,984.84
2022-09-28T01:08:15.190Z,984.82
2022-09-28T01:09:15.203Z,984.84
2022-09-28T01:10:15.157Z,984.81
2022-09-28T01:11:15.136Z,984.81
2022-09-28T01:12:15.299Z,984.86
2022-09-28T01:13:15.116Z,984.83
2022-09-28T01:14:15.132Z,984.80
2022-09-28T01:15:15.120Z,984.78
2022-09-28T01:16:15.127Z,984.80
2022-09-28T01:17:15.092Z,984.85
2022-09-28T01:18:15.055Z,984.76
2022-09-28T01:19:15.133Z,984.79
2022-09-28T01:20:15.033Z,984.80
2022-09-28T01:21:15.027Z,984.72
2022-09-28T01:22:15.059Z,984.75
2022-09-28T01:23:15.003Z,984.71
2022-09-28T01:24:14.990Z,984.75
2022-09-28T01:25:15.003Z,984.69
2022-09-28T01:26:14.993Z,984.71
2022-09-28T01:27:14.962Z,984.73
2022-09-28T01:28:15.002Z,984.65
2022-09-28T01:29:15.007Z,984.63
2022-09-28T01:30:14.921Z,984.67
2022-09-28T01:31:15.025Z,984.66
2022-09-28T01:32:14.934Z,984.59
2022-09-28T01:33:14.904Z,984.61
2022-09-28T01:34:14.887Z,984.63
2022-09-28T01:35:14.950Z,984.65
2022-09-28T01:36:14.859Z,984.60
2022-09-28T01:37:14.864Z,984.61
2022-09-28T01:38:14.832Z,984.65
2022-09-28T01:39:14.938Z,984.57
2022-09-28T01:40:15.007Z,984.61
2022-09-28T01:41:14.803Z,984.56
2022-09-28T01:42:14.831Z,984.53
2022-09-28T01:43:14.804Z,984.55
2022-09-28T01:44:14.832Z,984.49
2022-09-28T01:45:14.780Z,984.45
2022-09-28T01:46:14.865Z,984.46
2022-09-28T01:47:14.735Z,984.45
2022-09-28T01:48:14.726Z,984.45
2022-09-28T01:49:14.858Z,984.35
2022-09-28T01:50:14.712Z,984.37
2022-09-28T01:51:14.700Z,984.38
2022-09-28T01:52:14.681Z,984.34
2022-09-28T01:53:14.676Z,984.33
2022-09-28T01:54:14.674Z,984.29
2022-09-28T01:55:14.671Z,984.28
2022-09-28T01:56:14.634Z,984.21
2022-09-28T01:57:14.622Z,984.23
2022-09-28T01:58:14.630Z,984.19
2022-09-28T01:59:14.723Z,984.19
2022-09-28T02:00:14.622Z,984.19
2022-09-28T02:01:14.670Z,984.14
2022-09-28T02:02:14.641Z,984.21
2022-09-28T02:03:14.559Z,984.19
2022-09-28T02:04:14.555Z,984.20
2022-09-28T02:05:14.534Z,984.23
2022-09-28T02:06:14.522Z,984.15
2022-09-28T02:07:14.518Z,984.14
2022-09-28T02:08:14.510Z,984.15
2022-09-28T02:09:14.545Z,984.13
2022-09-28T02:10:14.490Z,984.08
2022-09-28T02:11:14.468Z,984.04
2022-09-28T02:12:14.464Z,984.05
2022-09-28T02:13:14.465Z,984.08
2022-09-28T02:14:14.453Z,984.04
2022-09-28T02:15:14.435Z,983.99
2022-09-28T02:16:14.462Z,984.01
2022-09-28T02:17:14.415Z,984.01
2022-09-28T02:18:14.404Z,983.94
2022-09-28T02:19:14.465Z,984.01
2022-09-28T02:20:14.367Z,983.98
2022-09-28T02:21:14.396Z,984.00
2022-09-28T02:22:14.341Z,983.94
2022-09-28T02:23:14.358Z,983.90
2022-09-28T02:24:16.272Z,983.89
2022-09-28T02:25:14.313Z,983.92
2022-09-28T02:26:14.297Z,983.93
2022-09-28T02:27:14.286Z,983.96
2022-09-28T02:28:14.275Z,983.93
2022-09-28T02:29:14.320Z,983.97
2022-09-28T02:30:14.256Z,983.92
2022-09-28T02:31:14.353Z,983.90
2022-09-28T02:32:14.248Z,983.89
2022-09-28T02:33:14.225Z,983.89
2022-09-28T02:34:14.232Z,983.86
2022-09-28T02:35:14.209Z,983.93
2022-09-28T02:36:14.233Z,983.93
2022-09-28T02:37:14.185Z,983.92
2022-09-28T02:38:14.163Z,983.91
2022-09-28T02:39:14.225Z,983.95
2022-09-28T02:40:14.163Z,984.00
2022-09-28T02:41:14.141Z,983.91
2022-09-28T02:42:14.131Z,983.94
2022-09-28T02:43:14.108Z,983.95
2022-09-28T02:44:14.112Z,983.95
2022-09-28T02:45:14.085Z,983.90
2022-09-28T02:46:14.158Z,983.90
2022-09-28T02:47:14.071Z,983.90
2022-09-28T02:48:14.071Z,983.89
2022-09-28T02:49:22.334Z,983.96
2022-09-28T02:50:15.045Z,983.96
2022-09-28T02:51:14.049Z,983.92
2022-09-28T02:52:14.010Z,983.89
2022-09-28T02:53:14.002Z,983.90
2022-09-28T02:54:18.573Z,983.91
2022-09-28T02:55:13.981Z,983.94
2022-09-28T02:56:13.991Z,983.94
2022-09-28T02:57:13.957Z,983.98
2022-09-28T02:58:13.943Z,983.98
2022-09-28T02:59:14.032Z,983.95
2022-09-28T03:00:13.919Z,983.93
2022-09-28T03:01:14.036Z,983.91
2022-09-28T03:02:13.924Z,983.93
2022-09-28T03:03:13.894Z,983.91
2022-09-28T03:04:13.928Z,983.92
2022-09-28T03:05:13.868Z,983.91
2022-09-28T03:06:13.852Z,983.86
2022-09-28T03:07:13.854Z,983.88
2022-09-28T03:08:13.831Z,983.87
2022-09-28T03:09:13.940Z,983.88
2022-09-28T03:10:13.808Z,983.86
2022-09-28T03:11:13.821Z,983.84
2022-09-28T03:12:13.792Z,983.86
2022-09-28T03:13:13.773Z,983.83
2022-09-28T03:14:13.765Z,983.82
2022-09-28T03:15:13.778Z,983.87
2022-09-28T03:16:13.827Z,983.87
2022-09-28T03:17:13.752Z,983.79
2022-09-28T03:18:13.760Z,983.89
2022-09-28T03:19:13.823Z,983.81
2022-09-28T03:20:13.718Z,983.77
2022-09-28T03:21:13.690Z,983.78
2022-09-28T03:22:13.686Z,983.75
2022-09-28T03:23:24.896Z,983.79
2022-09-28T03:24:14.662Z,983.84
2022-09-28T03:25:13.641Z,983.74
2022-09-28T03:26:13.636Z,983.73
2022-09-28T03:27:13.645Z,983.73
2022-09-28T03:28:13.620Z,983.78
2022-09-28T03:29:13.709Z,983.74
2022-09-28T03:30:13.606Z,983.76
2022-09-28T03:31:13.651Z,983.68
2022-09-28T03:32:13.676Z,983.67
2022-09-28T03:33:13.551Z,983.62
2022-09-28T03:34:13.548Z,983.62
2022-09-28T03:35:13.527Z,983.60
2022-09-28T03:36:13.537Z,983.63
2022-09-28T03:37:13.509Z,983.66
2022-09-28T03:38:13.527Z,983.64
2022-09-28T03:39:13.589Z,983.58
2022-09-28T03:40:13.487Z,983.58
2022-09-28T03:41:13.490Z,983.63
2022-09-28T03:42:13.451Z,983.67
2022-09-28T03:43:13.441Z,983.63
2022-09-28T03:44:13.448Z,983.61
2022-09-28T03:45:13.437Z,983.62
2022-09-28T03:46:13.451Z,983.64
2022-09-28T03:47:13.400Z,983.64
2022-09-28T03:48:13.384Z,983.63
2022-09-28T03:49:13.487Z,983.61
2022-09-28T03:50:13.364Z,983.63
2022-09-28T03:51:13.368Z,983.59
2022-09-28T03:52:13.361Z,983.61
2022-09-28T03:53:13.348Z,983.55
2022-09-28T03:54:13.325Z,983.53
2022-09-28T03:55:13.317Z,983.48
2022-09-28T03:56:13.332Z,983.49
2022-09-28T03:57:13.296Z,983.49
2022-09-28T03:58:13.276Z,983.45
2022-09-28T03:59:13.299Z,983.40
2022-09-28T04:00:13.253Z,983.38
2022-09-28T04:01:16.857Z,983.38
2022-09-28T04:02:13.291Z,983.29
2022-09-28T04:03:13.239Z,983.35
2022-09-28T04:04:13.208Z,983.34
2022-09-28T04:05:13.194Z,983.21
2022-09-28T04:06:13.464Z,983.19
2022-09-28T04:07:13.172Z,983.19
2022-09-28T04:08:13.189Z,983.18
2022-09-28T04:09:13.178Z,983.27
2022-09-28T04:10:13.143Z,983.25
2022-09-28T04:11:13.149Z,983.18
2022-09-28T04:12:13.131Z,983.18
2022-09-28T04:13:13.105Z,983.14
2022-09-28T04:14:13.120Z,983.10
2022-09-28T04:15:13.100Z,983.05
2022-09-28T04:16:13.097Z,983.04
2022-09-28T04:17:13.087Z,983.08
2022-09-28T04:18:13.065Z,983.05
2022-09-28T04:19:13.039Z,983.07
2022-09-28T04:20:13.036Z,983.07
2022-09-28T04:21:13.016Z,983.09
2022-09-28T04:22:13.023Z,983.00
2022-09-28T04:23:12.997Z,982.92
2022-09-28T04:24:13.003Z,982.89
2022-09-28T04:25:13.006Z,982.86
2022-09-28T04:26:12.973Z,982.88
2022-09-28T04:27:12.979Z,982.89
2022-09-28T04:28:12.937Z,982.89
2022-09-28T04:29:12.939Z,982.95
2022-09-28T04:30:12.922Z,982.94
2022-09-28T04:31:12.994Z,982.97
2022-09-28T04:32:12.903Z,982.97
2022-09-28T04:33:12.895Z,982.92
2022-09-28T04:34:12.878Z,982.90
2022-09-28T04:35:12.878Z,982.91
2022-09-28T04:36:12.853Z,982.83
2022-09-28T04:37:12.857Z,982.79
2022-09-28T04:38:12.867Z,982.79
2022-09-28T04:39:12.826Z,982.82
2022-09-28T04:40:12.823Z,982.84
2022-09-28T04:41:12.805Z,982.81
2022-09-28T04:42:12.784Z,982.82
2022-09-28T04:43:12.801Z,982.80
2022-09-28T04:44:12.761Z,982.80
2022-09-28T04:45:12.747Z,982.88
2022-09-28T04:46:12.856Z,982.85
2022-09-28T04:47:12.742Z,982.82
2022-09-28T04:48:12.724Z,982.84
2022-09-28T04:49:12.732Z,982.88
2022-09-28T04:50:12.704Z,982.83
2022-09-28T04:51:12.686Z,982.75
2022-09-28T04:52:18.023Z,982.76
2022-09-28T04:53:13.668Z,982.74
2022-09-28T04:54:12.657Z,982.71
2022-09-28T04:55:12.652Z,982.71
2022-09-28T04:56:12.646Z,982.71
2022-09-28T04:57:12.651Z,982.70
2022-09-28T04:58:12.610Z,982.67
2022-09-28T04:59:12.595Z,982.69
2022-09-28T05:00:12.604Z,982.70
2022-09-28T05:01:12.629Z,982.66
2022-09-28T05:02:12.630Z,982.68
2022-09-28T05:03:12.567Z,982.63
2022-09-28T05:04:12.547Z,982.71
2022-09-28T05:05:12.534Z,982.66
2022-09-28T05:06:12.544Z,982.60
2022-09-28T05:07:12.530Z,982.64
2022-09-28T05:08:12.509Z,982.66
2022-09-28T05:09:12.488Z,982.62
2022-09-28T05:10:12.494Z,982.63
2022-09-28T05:11:12.465Z,982.62
2022-09-28T05:12:12.483Z,982.55
2022-09-28T05:13:12.473Z,982.62
2022-09-28T05:14:12.427Z,982.58
2022-09-28T05:15:12.444Z,982.56
2022-09-28T05:16:12.423Z,982.56
2022-09-28T05:17:12.405Z,982.56
2022-09-28T05:18:12.418Z,982.54
2022-09-28T05:19:12.403Z,982.50
2022-09-28T05:20:12.362Z,982.48
2022-09-28T05:21:12.358Z,982.48
2022-09-28T05:22:12.353Z,982.40
2022-09-28T05:23:12.383Z,982.40
2022-09-28T05:24:12.360Z,982.35
2022-09-28T05:25:12.304Z,982.35
2022-09-28T05:26:12.295Z,982.34
2022-09-28T05:27:12.282Z,982.38
2022-09-28T05:28:12.301Z,982.31
2022-09-28T05:29:12.273Z,982.34
2022-09-28T05:30:12.283Z,982.30
2022-09-28T05:31:12.262Z,982.31
2022-09-28T05:32:12.317Z,982.29
2022-09-28T05:33:12.216Z,982.26
2022-09-28T05:34:12.215Z,982.27
2022-09-28T05:35:12.213Z,982.30
2022-09-28T05:36:12.220Z,982.28
2022-09-28T05:37:12.177Z,982.25
2022-09-28T05:38:12.174Z,982.21
2022-09-28T05:39:12.149Z,982.30
2022-09-28T05:40:12.158Z,982.22
2022-09-28T05:41:12.215Z,982.25
2022-09-28T05:42:12.120Z,982.25
2022-09-28T05:43:12.129Z,982.27
2022-09-28T05:44:12.131Z,982.27
2022-09-28T05:45:12.090Z,982.32
2022-09-28T05:46:12.130Z,982.22
2022-09-28T05:47:12.062Z,982.27
2022-09-28T05:48:12.053Z,982.28
2022-09-28T05:49:12.115Z,982.21
2022-09-28T05:50:12.029Z,982.17
2022-09-28T05:51:12.027Z,982.19
2022-09-28T05:52:12.021Z,982.18
2022-09-28T05:53:11.995Z,982.23
2022-09-28T05:54:11.986Z,982.19
2022-09-28T05:55:12.000Z,982.19
2022-09-28T05:56:11.962Z,982.18
2022-09-28T05:57:11.975Z,982.16
2022-09-28T05:58:11.963Z,982.11
2022-09-28T05:59:11.971Z,982.12
2022-09-28T06:00:11.939Z,982.13
2022-09-28T06:01:11.993Z,982.20
2022-09-28T06:02:12.002Z,982.13
2022-09-28T06:03:11.897Z,982.16
2022-09-28T06:04:11.880Z,982.10
2022-09-28T06:05:11.866Z,982.12
2022-09-28T06:06:11.875Z,982.14
2022-09-28T06:07:11.869Z,982.09
2022-09-28T06:08:11.839Z,982.14
2022-09-28T06:09:11.831Z,982.12
2022-09-28T06:10:11.820Z,982.08
2022-09-28T06:11:11.797Z,982.07
2022-09-28T06:12:11.884Z,982.14
2022-09-28T06:13:11.809Z,982.08
2022-09-28T06:14:11.775Z,982.11
2022-09-28T06:15:11.774Z,982.16
2022-09-28T06:16:11.815Z,982.08
2022-09-28T06:17:11.752Z,982.08
2022-09-28T06:18:11.741Z,982.09
2022-09-28T06:19:11.734Z,982.11
2022-09-28T06:20:11.705Z,982.09
2022-09-28T06:21:11.718Z,982.16
2022-09-28T06:22:11.677Z,982.15
2022-09-28T06:23:11.665Z,982.09
2022-09-28T06:24:11.690Z,982.10
2022-09-28T06:25:11.646Z,982.13
2022-09-28T06:26:11.657Z,982.09
2022-09-28T06:27:11.657Z,982.11
2022-09-28T06:28:11.611Z,982.12
2022-09-28T06:29:14.762Z,982.14
2022-09-28T06:30:11.594Z,982.11
2022-09-28T06:31:11.682Z,982.14
2022-09-28T06:32:11.608Z,982.13
2022-09-28T06:33:11.595Z,982.19
2022-09-28T06:34:11.562Z,982.18
2022-09-28T06:35:11.542Z,982.11
2022-09-28T06:36:11.534Z,982.16
2022-09-28T06:37:11.538Z,982.10
2022-09-28T06:38:11.506Z,982.16
2022-09-28T06:39:11.487Z,982.09
2022-09-28T06:40:11.477Z,982.14
2022-09-28T06:41:11.465Z,982.14
2022-09-28T06:42:11.484Z,982.16
2022-09-28T06:43:11.462Z,982.10
2022-09-28T06:44:11.439Z,982.14
2022-09-28T06:45:11.425Z,982.15
2022-09-28T06:46:11.448Z,982.20
2022-09-28T06:47:11.429Z,982.23
2022-09-28T06:48:11.410Z,982.22
2022-09-28T06:49:12.723Z,982.17
2022-09-28T06:50:11.377Z,982.18
2022-09-28T06:51:11.357Z,982.16
2022-09-28T06:52:11.345Z,982.20
2022-09-28T06:53:11.337Z,982.19
2022-09-28T06:54:11.422Z,982.17
2022-09-28T06:55:11.323Z,982.17
2022-09-28T06:56:11.328Z,982.24
2022-09-28T06:57:11.302Z,982.19
2022-09-28T06:58:11.283Z,982.18
2022-09-28T06:59:11.273Z,982.16
2022-09-28T07:00:11.270Z,982.17
2022-09-28T07:01:11.294Z,982.15
2022-09-28T07:02:11.290Z,982.18
2022-09-28T07:03:11.226Z,982.18
2022-09-28T07:04:11.298Z,982.18
2022-09-28T07:05:11.241Z,982.21
2022-09-28T07:06:11.207Z,982.19
2022-09-28T07:07:11.214Z,982.23
2022-09-28T07:08:11.191Z,982.20
2022-09-28T07:09:31.919Z,982.25
2022-09-28T07:10:11.147Z,982.17
2022-09-28T07:11:11.257Z,982.19
2022-09-28T07:12:11.160Z,982.22
2022-09-28T07:13:33.954Z,982.23
2022-09-28T07:14:18.792Z,982.16
2022-09-28T07:15:11.168Z,982.21
2022-09-28T07:16:11.203Z,982.20
2022-09-28T07:17:14.062Z,982.15
2022-09-28T07:18:11.129Z,982.15
2022-09-28T07:19:11.056Z,982.18
2022-09-28T07:20:18.031Z,982.14
2022-09-28T07:21:19.468Z,982.13
2022-09-28T07:22:13.954Z,982.10
2022-09-28T07:23:19.123Z,982.13
2022-09-28T07:24:11.023Z,982.12
2022-09-28T07:25:10.979Z,982.15
2022-09-28T07:26:11.018Z,982.14
2022-09-28T07:27:10.981Z,982.22
2022-09-28T07:28:10.975Z,982.17
2022-09-28T07:29:10.943Z,982.19
2022-09-28T07:30:11.000Z,982.21
2022-09-28T07:31:11.125Z,982.23
2022-09-28T07:32:10.908Z,982.25
2022-09-28T07:33:10.923Z,982.19
2022-09-28T07:34:10.941Z,982.24
2022-09-28T07:35:10.872Z,982.27
2022-09-28T07:36:10.904Z,982.30
2022-09-28T07:37:10.853Z,982.27
2022-09-28T07:38:10.835Z,982.23
2022-09-28T07:39:10.886Z,982.20
2022-09-28T07:40:10.930Z,982.28
2022-09-28T07:41:10.865Z,982.25
2022-09-28T07:42:10.804Z,982.29
2022-09-28T07:43:10.808Z,982.24
2022-09-28T07:44:10.910Z,982.27
2022-09-28T07:45:10.821Z,982.26
2022-09-28T07:46:10.828Z,982.28
2022-09-28T07:47:10.745Z,982.24
2022-09-28T07:49:12.386Z,982.26
2022-09-28T07:50:10.907Z,982.24
2022-09-28T07:51:10.711Z,982.26
2022-09-28T07:52:10.699Z,982.25
2022-09-28T07:53:10.681Z,982.34
2022-09-28T07:54:10.687Z,982.30
2022-09-28T07:55:10.704Z,982.28
2022-09-28T07:56:10.645Z,982.27
2022-09-28T07:57:10.647Z,982.29
2022-09-28T07:58:10.615Z,982.28
2022-09-28T07:59:10.748Z,982.26
2022-09-28T08:00:10.616Z,982.34
2022-09-28T08:01:10.830Z,982.29
2022-09-28T08:02:10.635Z,982.28
2022-09-28T08:03:10.585Z,982.26
2022-09-28T08:04:10.646Z,982.24
2022-09-28T08:05:10.553Z,982.27
2022-09-28T08:06:10.527Z,982.25
2022-09-28T08:07:10.523Z,982.24
2022-09-28T08:08:10.525Z,982.26
2022-09-28T08:09:10.601Z,982.24
2022-09-28T08:10:10.540Z,982.26
2022-09-28T08:11:10.497Z,982.27
2022-09-28T08:12:10.470Z,982.32
2022-09-28T08:13:10.450Z,982.32
2022-09-28T08:14:10.510Z,982.34
2022-09-28T08:15:10.472Z,982.29
2022-09-28T08:16:10.433Z,982.29
2022-09-28T08:17:10.439Z,982.32
2022-09-28T08:18:10.407Z,982.26
2022-09-28T08:19:10.486Z,982.30
2022-09-28T08:20:10.482Z,982.37
2022-09-28T08:21:10.361Z,982.33
2022-09-28T08:22:10.363Z,982.36
2022-09-28T08:23:10.371Z,982.37
2022-09-28T08:24:10.462Z,982.35
2022-09-28T08:25:10.353Z,982.43
2022-09-28T08:26:15.219Z,982.35
2022-09-28T08:27:10.324Z,982.33
2022-09-28T08:28:10.301Z,982.42
2022-09-28T08:29:10.295Z,982.36
2022-09-28T08:30:10.366Z,982.35
2022-09-28T08:31:10.322Z,982.41
2022-09-28T08:32:10.239Z,982.40
2022-09-28T08:33:10.282Z,982.38
2022-09-28T08:34:10.265Z,982.43
2022-09-28T08:35:10.207Z,982.47
2022-09-28T08:36:10.258Z,982.45
2022-09-28T08:37:10.191Z,982.48
2022-09-28T08:38:10.255Z,982.40
2022-09-28T08:39:10.170Z,982.46
2022-09-28T08:40:10.247Z,982.44
2022-09-28T08:41:10.146Z,982.43
2022-09-28T08:42:10.150Z,982.45
2022-09-28T08:43:10.186Z,982.47
2022-09-28T08:44:10.208Z,982.47
2022-09-28T08:45:10.109Z,982.39
2022-09-28T08:46:10.144Z,982.51
2022-09-28T08:47:10.111Z,982.43
2022-09-28T08:48:10.064Z,982.46
2022-09-28T08:49:26.385Z,982.39
2022-09-28T08:50:11.049Z,982.44
2022-09-28T08:51:10.036Z,982.42
2022-09-28T08:52:10.051Z,982.38
2022-09-28T08:53:10.052Z,982.42
2022-09-28T08:54:11.876Z,982.46
2022-09-28T08:55:10.007Z,982.48
2022-09-28T08:56:09.992Z,982.49
2022-09-28T08:57:09.990Z,982.44
2022-09-28T08:58:09.954Z,982.46
2022-09-28T08:59:09.982Z,982.45
2022-09-28T09:00:11.813Z,982.45
2022-09-28T09:01:09.988Z,982.40
2022-09-28T09:02:09.989Z,982.47
2022-09-28T09:03:09.915Z,982.45
2022-09-28T09:04:09.893Z,982.48
2022-09-28T09:05:09.895Z,982.45
2022-09-28T09:06:09.869Z,982.46
2022-09-28T09:07:09.854Z,982.48
2022-09-28T09:08:09.867Z,982.44
2022-09-28T09:09:09.831Z,982.42
2022-09-28T09:10:09.832Z,982.45
2022-09-28T09:11:09.830Z,982.49
2022-09-28T09:12:09.824Z,982.40
2022-09-28T09:13:09.822Z,982.46
2022-09-28T09:14:09.788Z,982.43
2022-09-28T09:15:09.765Z,982.44
2022-09-28T09:16:09.798Z,982.46
2022-09-28T09:17:09.749Z,982.45
2022-09-28T09:18:09.738Z,982.48
2022-09-28T09:19:09.743Z,982.59
2022-09-28T09:20:09.714Z,982.51
2022-09-28T09:21:09.724Z,982.52
2022-09-28T09:22:09.725Z,982.53
2022-09-28T09:23:09.734Z,982.55
2022-09-28T09:24:09.665Z,982.55
2022-09-28T09:25:09.657Z,982.56
2022-09-28T09:26:09.659Z,982.54
2022-09-28T09:27:09.657Z,982.55
2022-09-28T09:28:09.647Z,982.56
2022-09-28T09:29:09.614Z,982.52
2022-09-28T09:30:09.718Z,982.50
2022-09-28T09:31:09.734Z,982.52
2022-09-28T09:32:09.588Z,982.51
2022-09-28T09:33:09.601Z,982.49
2022-09-28T09:34:09.648Z,982.47
2022-09-28T09:35:09.566Z,982.51
2022-09-28T09:36:09.571Z,982.51
2022-09-28T09:37:09.529Z,982.46
2022-09-28T09:38:09.537Z,982.50
2022-09-28T09:39:09.500Z,982.47
2022-09-28T09:40:09.489Z,982.47
2022-09-28T09:41:09.623Z,982.52
2022-09-28T09:42:09.498Z,982.44
2022-09-28T09:43:09.476Z,982.51
2022-09-28T09:44:09.671Z,982.52
2022-09-28T09:45:10.262Z,982.53
2022-09-28T09:46:09.450Z,982.52
2022-09-28T09:47:10.765Z,982.49
2022-09-28T09:48:09.401Z,982.49
2022-09-28T09:49:09.415Z,982.58
2022-09-28T09:50:09.414Z,982.53
2022-09-28T09:51:09.367Z,982.55
2022-09-28T09:52:09.359Z,982.57
2022-09-28T09:53:09.377Z,982.57
2022-09-28T09:54:09.375Z,982.55
2022-09-28T09:55:09.352Z,982.61
2022-09-28T09:56:09.312Z,982.56
2022-09-28T09:57:09.305Z,982.57
2022-09-28T09:58:09.295Z,982.58
2022-09-28T09:59:09.295Z,982.56
2022-09-28T10:00:09.303Z,982.62
2022-09-28T10:01:09.372Z,982.55
2022-09-28T10:02:11.769Z,982.64
2022-09-28T10:03:09.253Z,982.60
2022-09-28T10:04:09.245Z,982.56
2022-09-28T10:05:09.216Z,982.55
2022-09-28T10:06:09.237Z,982.57
2022-09-28T10:07:09.228Z,982.51
2022-09-28T10:08:09.180Z,982.56
2022-09-28T10:09:09.168Z,982.54
2022-09-28T10:10:09.171Z,982.59
2022-09-28T10:11:09.160Z,982.58
2022-09-28T10:12:09.169Z,982.53
2022-09-28T10:13:09.157Z,982.55
2022-09-28T10:14:09.157Z,982.54
2022-09-28T10:15:09.112Z,982.62
2022-09-28T10:16:09.138Z,982.66
2022-09-28T10:17:09.183Z,982.55
2022-09-28T10:18:09.104Z,982.58
2022-09-28T10:19:09.059Z,982.60
2022-09-28T10:20:09.049Z,982.63
2022-09-28T10:21:09.046Z,982.64
2022-09-28T10:22:09.073Z,982.64
2022-09-28T10:23:09.034Z,982.65
2022-09-28T10:24:09.025Z,982.60
2022-09-28T10:25:09.040Z,982.64
2022-09-28T10:26:08.986Z,982.63
2022-09-28T10:27:08.981Z,982.64
2022-09-28T10:28:09.012Z,982.61
2022-09-28T10:29:08.955Z,982.70
2022-09-28T10:30:08.961Z,982.65
2022-09-28T10:32:08.936Z,982.70
2022-09-28T10:33:08.936Z,982.78
2022-09-28T10:34:08.895Z,982.71
2022-09-28T10:35:08.891Z,982.75
2022-09-28T10:36:08.899Z,982.75
2022-09-28T10:37:08.911Z,982.75
2022-09-28T10:38:08.867Z,982.78
2022-09-28T10:39:08.869Z,982.76
2022-09-28T10:40:08.856Z,982.80
2022-09-28T10:41:08.891Z,982.78
2022-09-28T10:42:08.803Z,982.89
2022-09-28T10:43:08.832Z,982.80
2022-09-28T10:44:08.906Z,982.83
2022-09-28T10:45:08.876Z,982.84
2022-09-28T10:46:08.827Z,982.80
2022-09-28T10:47:08.758Z,982.84
2022-09-28T10:48:08.757Z,982.87
2022-09-28T10:49:08.785Z,982.84
2022-09-28T10:50:08.730Z,982.85
2022-09-28T10:51:08.711Z,982.83
2022-09-28T10:52:08.725Z,982.85
2022-09-28T10:53:08.717Z,982.83
2022-09-28T10:54:08.679Z,982.85
2022-09-28T10:55:08.683Z,982.87
2022-09-28T10:56:08.683Z,982.93
2022-09-28T10:57:13.322Z,982.93
2022-09-28T10:58:08.653Z,982.91
2022-09-28T10:59:08.702Z,982.89
2022-09-28T11:00:08.612Z,982.93
2022-09-28T11:01:08.665Z,982.91
2022-09-28T11:02:08.644Z,982.95
2022-09-28T11:03:08.593Z,982.96
2022-09-28T11:04:08.611Z,982.93
2022-09-28T11:05:08.569Z,982.95
2022-09-28T11:06:08.550Z,982.93
2022-09-28T11:07:08.529Z,982.92
2022-09-28T11:08:08.527Z,982.88
2022-09-28T11:09:08.533Z,982.94
2022-09-28T11:10:08.554Z,982.93
2022-09-28T11:11:08.502Z,982.94
2022-09-28T11:12:08.509Z,982.89
2022-09-28T11:13:08.462Z,982.88
2022-09-28T11:14:08.472Z,982.91
2022-09-28T11:15:09.219Z,982.93
2022-09-28T11:16:08.450Z,982.90
2022-09-28T11:17:08.506Z,983.00
2022-09-28T11:18:08.421Z,982.95
2022-09-28T11:19:08.485Z,982.90
2022-09-28T11:20:08.401Z,982.95
2022-09-28T11:21:11.831Z,982.97
2022-09-28T11:22:11.218Z,982.95
2022-09-28T11:23:08.353Z,983.00
2022-09-28T11:24:08.362Z,982.97
2022-09-28T11:25:08.338Z,982.93
2022-09-28T11:26:08.335Z,982.99
2022-09-28T11:27:08.340Z,982.98
2022-09-28T11:28:08.311Z,982.97
2022-09-28T11:29:08.323Z,982.98
2022-09-28T11:30:08.277Z,982.96
2022-09-28T11:31:08.386Z,982.97
2022-09-28T11:32:11.393Z,983.02
2022-09-28T11:33:08.250Z,983.04
2022-09-28T11:34:08.250Z,983.05
2022-09-28T11:35:08.234Z,983.04
2022-09-28T11:36:08.254Z,983.06
2022-09-28T11:37:08.201Z,983.01
2022-09-28T11:38:08.196Z,983.14
2022-09-28T11:39:08.195Z,983.07
2022-09-28T11:40:08.189Z,983.12
2022-09-28T11:41:08.189Z,983.12
2022-09-28T11:42:09.525Z,983.14
2022-09-28T11:43:08.147Z,983.13
2022-09-28T11:44:08.157Z,983.16
2022-09-28T11:45:08.139Z,983.18
2022-09-28T11:46:08.181Z,983.12
2022-09-28T11:47:08.092Z,983.12
2022-09-28T11:48:08.094Z,983.16
2022-09-28T11:49:08.084Z,983.14
2022-09-28T11:50:08.135Z,983.14
2022-09-28T11:51:08.057Z,983.14
2022-09-28T11:52:08.060Z,983.16
2022-09-28T11:53:08.036Z,983.16
2022-09-28T11:54:08.037Z,983.15
2022-09-28T11:55:08.025Z,983.17
2022-09-28T11:56:08.970Z,983.21
2022-09-28T11:57:08.007Z,983.23
2022-09-28T11:58:08.002Z,983.22
2022-09-28T11:59:07.959Z,983.29
2022-09-28T12:00:07.953Z,983.26
2022-09-28T12:01:07.942Z,983.29
2022-09-28T12:02:08.116Z,983.26
2022-09-28T12:03:08.090Z,983.33
2022-09-28T12:04:08.717Z,983.25
2022-09-28T12:05:07.945Z,983.29
2022-09-28T12:06:07.893Z,983.31
2022-09-28T12:07:07.867Z,983.29
2022-09-28T12:08:07.884Z,983.32
2022-09-28T12:09:09.863Z,983.31
2022-09-28T12:10:07.869Z,983.34
2022-09-28T12:11:07.826Z,983.34
2022-09-28T12:12:07.832Z,983.28
2022-09-28T12:13:07.803Z,983.28
2022-09-28T12:14:07.816Z,983.28
2022-09-28T12:15:07.780Z,983.25
2022-09-28T12:16:27.666Z,983.29
2022-09-28T12:17:08.612Z,983.31
2022-09-28T12:18:07.833Z,983.31
2022-09-28T12:19:07.812Z,983.30
2022-09-28T12:20:07.737Z,983.31
2022-09-28T12:21:07.723Z,983.28
2022-09-28T12:22:07.723Z,983.28
2022-09-28T12:23:07.721Z,983.28
2022-09-28T12:24:07.700Z,983.25
2022-09-28T12:25:07.685Z,983.27
2022-09-28T12:26:07.676Z,983.30
2022-09-28T12:27:07.646Z,983.29
2022-09-28T12:28:07.661Z,983.27
2022-09-28T12:29:07.625Z,983.33
2022-09-28T12:30:07.663Z,983.27